createdAt,value
2022-11-27T00:02:25.910Z,9.57
2022-11-27T00:04:52.624Z,9.05
2022-11-27T00:07:19.326Z,9.55
2022-11-27T00:09:46.027Z,8.75
2022-11-27T00:12:12.838Z,10.23
2022-11-27T00:14:39.514Z,10.00
2022-11-27T00:17:09.162Z,9.07
2022-11-27T00:19:35.884Z,8.77
2022-11-27T00:22:02.577Z,8.75
2022-11-27T00:24:29.200Z,8.75
2022-11-27T00:26:58.963Z,9.23
2022-11-27T00:29:29.176Z,9.32
2022-11-27T00:31:56.504Z,9.35
2022-11-27T00:34:23.278Z,10.15
2022-11-27T00:36:49.969Z,9.02
2022-11-27T00:39:16.772Z,9.82
2022-11-27T00:41:43.469Z,9.55
2022-11-27T00:44:10.328Z,9.50
2022-11-27T00:46:37.076Z,9.73
2022-11-27T00:49:06.982Z,10.32
2022-11-27T00:51:33.706Z,9.45
2022-11-27T00:54:03.554Z,9.68
2022-11-27T00:56:32.685Z,9.90
2022-11-27T00:58:59.964Z,9.50
2022-11-27T01:01:27.918Z,10.40
2022-11-27T01:03:56.245Z,10.80
2022-11-27T01:06:27.284Z,9.18
2022-11-27T01:08:54.347Z,9.95
2022-11-27T01:11:23.529Z,9.80
2022-11-27T01:13:50.315Z,10.52
2022-11-27T01:16:21.149Z,9.65
2022-11-27T01:18:49.072Z,9.43
2022-11-27T01:21:17.793Z,8.93
2022-11-27T01:23:48.490Z,8.88
2022-11-27T01:26:16.137Z,9.10
2022-11-27T01:28:42.845Z,9.20
2022-11-27T01:31:17.274Z,9.15
2022-11-27T01:33:45.159Z,9.88
2022-11-27T01:36:13.626Z,9.45
2022-11-27T01:38:40.341Z,9.48
2022-11-27T01:41:20.503Z,9.43
2022-11-27T01:43:56.381Z,9.55
2022-11-27T01:46:28.931Z,10.32
2022-11-27T01:49:09.795Z,9.40
2022-11-27T01:51:52.112Z,9.63
2022-11-27T01:54:19.511Z,9.57
2022-11-27T01:56:49.246Z,8.93
2022-11-27T01:59:17.346Z,8.48
2022-11-27T02:01:44.120Z,9.25
2022-11-27T02:04:14.609Z,9.52
2022-11-27T02:06:41.256Z,9.02
2022-11-27T02:09:07.989Z,8.60
2022-11-27T02:11:44.460Z,9.15
2022-11-27T02:14:17.480Z,9.07
2022-11-27T02:16:53.564Z,9.00
2022-11-27T02:19:57.282Z,9.30
2022-11-27T02:22:39.624Z,9.40
2022-11-27T02:25:29.286Z,8.40
2022-11-27T02:28:25.379Z,8.55
2022-11-27T02:31:00.628Z,9.05
2022-11-27T02:33:29.468Z,8.55
2022-11-27T02:36:03.880Z,8.73
2022-11-27T02:38:41.226Z,8.85
2022-11-27T02:41:38.895Z,9.02
2022-11-27T02:44:07.959Z,7.68
2022-11-27T02:46:34.835Z,8.85
2022-11-27T02:49:05.384Z,8.95
2022-11-27T02:51:42.740Z,8.43
2022-11-27T02:54:17.919Z,8.25
2022-11-27T02:56:48.357Z,8.40
2022-11-27T02:59:16.987Z,9.02
2022-11-27T03:01:48.054Z,8.65
2022-11-27T03:04:18.547Z,10.38
2022-11-27T03:06:53.019Z,8.52
2022-11-27T03:09:24.500Z,8.73
2022-11-27T03:11:54.410Z,9.10
2022-11-27T03:14:24.661Z,8.50
2022-11-27T03:17:28.239Z,8.95
2022-11-27T03:19:56.153Z,9.05
2022-11-27T03:22:23.142Z,8.57
2022-11-27T03:24:50.155Z,8.52
2022-11-27T03:27:26.639Z,9.38
2022-11-27T03:29:56.875Z,8.68
2022-11-27T03:32:24.345Z,9.57
2022-11-27T03:34:51.095Z,8.35
2022-11-27T03:37:18.094Z,8.65
2022-11-27T03:39:44.930Z,8.60
2022-11-27T03:42:30.578Z,8.45
2022-11-27T03:45:06.582Z,8.65
2022-11-27T03:47:50.698Z,9.30
2022-11-27T03:50:29.625Z,9.65
2022-11-27T03:53:20.264Z,9.77
2022-11-27T03:55:54.822Z,9.80
2022-11-27T03:58:30.345Z,10.35
2022-11-27T04:00:57.818Z,11.10
2022-11-27T04:03:27.804Z,9.95
2022-11-27T04:05:54.519Z,10.95
2022-11-27T04:08:21.327Z,10.20
2022-11-27T04:10:48.048Z,10.93
2022-11-27T04:13:17.682Z,11.93
2022-11-27T04:15:44.388Z,11.68
2022-11-27T04:18:11.224Z,12.07
2022-11-27T04:20:37.854Z,11.60
2022-11-27T04:23:04.544Z,12.23
2022-11-27T04:25:31.224Z,12.15
2022-11-27T04:28:00.966Z,12.85
2022-11-27T04:30:27.572Z,12.93
2022-11-27T04:32:54.242Z,12.45
2022-11-27T04:35:20.971Z,11.55
2022-11-27T04:37:47.564Z,11.75
2022-11-27T04:40:14.508Z,11.57
2022-11-27T04:42:41.127Z,11.88
2022-11-27T04:45:08.849Z,12.32
2022-11-27T04:47:35.657Z,11.57
2022-11-27T04:50:02.320Z,12.45
2022-11-27T04:52:28.937Z,11.75
2022-11-27T04:55:00.025Z,10.70
2022-11-27T04:57:27.321Z,11.50
2022-11-27T04:59:53.976Z,10.88
2022-11-27T05:02:20.623Z,11.02
2022-11-27T05:04:47.255Z,12.70
2022-11-27T05:07:13.998Z,11.35
2022-11-27T05:09:40.629Z,11.73
2022-11-27T05:12:07.343Z,12.02
2022-11-27T05:14:33.960Z,11.52
2022-11-27T05:17:00.894Z,11.75
2022-11-27T05:19:29.162Z,11.45
2022-11-27T05:21:56.002Z,11.35
2022-11-27T05:24:24.307Z,11.65
2022-11-27T05:26:51.648Z,10.98
2022-11-27T05:29:19.128Z,11.10
2022-11-27T05:31:46.126Z,11.32
2022-11-27T05:34:13.092Z,10.57
2022-11-27T05:36:39.738Z,10.68
2022-11-27T05:39:07.582Z,10.93
2022-11-27T05:41:41.775Z,10.40
2022-11-27T05:44:11.655Z,10.40
2022-11-27T05:46:38.355Z,11.50
2022-11-27T05:49:06.366Z,11.52
2022-11-27T05:51:32.987Z,11.82
2022-11-27T05:53:59.662Z,12.23
2022-11-27T05:56:26.302Z,13.05
2022-11-27T05:58:52.995Z,12.18
2022-11-27T06:01:19.700Z,11.82
2022-11-27T06:03:46.543Z,11.85
2022-11-27T06:06:16.034Z,11.90
2022-11-27T06:08:42.889Z,11.48
2022-11-27T06:11:11.702Z,10.98
2022-11-27T06:13:38.722Z,11.18
2022-11-27T06:16:11.772Z,10.68
2022-11-27T06:18:39.115Z,11.18
2022-11-27T06:21:10.739Z,11.23
2022-11-27T06:23:41.680Z,10.88
2022-11-27T06:26:20.181Z,11.65
2022-11-27T06:28:49.289Z,10.77
2022-11-27T06:31:21.175Z,11.18
2022-11-27T06:33:49.731Z,11.32
2022-11-27T06:36:17.307Z,11.85
2022-11-27T06:38:44.121Z,11.40
2022-11-27T06:41:21.763Z,11.20
2022-11-27T06:43:48.557Z,12.05
2022-11-27T06:46:17.742Z,11.65
2022-11-27T06:48:46.985Z,11.52
2022-11-27T06:51:15.645Z,12.00
2022-11-27T06:53:42.772Z,10.90
2022-11-27T06:56:11.872Z,10.82
2022-11-27T06:58:42.094Z,10.13
2022-11-27T07:01:14.938Z,11.30
2022-11-27T07:03:41.848Z,11.73
2022-11-27T07:06:11.057Z,11.32
2022-11-27T07:08:37.916Z,10.93
2022-11-27T07:11:09.307Z,11.25
2022-11-27T07:13:36.098Z,11.32
2022-11-27T07:16:04.689Z,11.57
2022-11-27T07:18:35.322Z,12.60
2022-11-27T07:21:02.149Z,12.52
2022-11-27T07:23:28.823Z,12.23
2022-11-27T07:25:55.518Z,11.50
2022-11-27T07:28:25.552Z,10.27
2022-11-27T07:30:56.058Z,11.90
2022-11-27T07:33:25.956Z,13.07
2022-11-27T07:36:13.395Z,11.68
2022-11-27T07:38:40.374Z,12.68
2022-11-27T07:41:07.487Z,13.07
2022-11-27T07:43:34.617Z,11.77
2022-11-27T07:46:05.668Z,11.50
2022-11-27T07:48:32.418Z,12.45
2022-11-27T07:50:59.107Z,12.13
2022-11-27T07:53:25.718Z,13.23
2022-11-27T07:55:52.380Z,11.70
2022-11-27T07:58:19.056Z,12.38
2022-11-27T08:00:45.646Z,13.40
2022-11-27T08:03:12.303Z,13.32
2022-11-27T08:05:39.107Z,13.40
2022-11-27T08:08:05.796Z,12.73
2022-11-27T08:10:35.650Z,12.68
2022-11-27T08:13:06.115Z,12.40
2022-11-27T08:15:33.334Z,12.60
2022-11-27T08:18:00.055Z,13.30
2022-11-27T08:20:27.321Z,11.75
2022-11-27T08:22:58.132Z,12.25
2022-11-27T08:25:27.868Z,12.30
2022-11-27T08:27:54.838Z,13.23
2022-11-27T08:30:23.854Z,13.15
2022-11-27T08:32:50.900Z,12.43
2022-11-27T08:35:17.713Z,13.73
2022-11-27T08:37:47.567Z,12.48
2022-11-27T08:40:14.273Z,11.48
2022-11-27T08:42:41.086Z,12.40
2022-11-27T08:45:08.535Z,11.68
2022-11-27T08:47:35.184Z,12.38
2022-11-27T08:50:02.238Z,11.77
2022-11-27T08:52:28.957Z,11.63
2022-11-27T08:54:57.800Z,12.80
2022-11-27T08:57:25.203Z,11.30
2022-11-27T08:59:51.927Z,10.95
2022-11-27T09:02:18.693Z,10.63
2022-11-27T09:04:45.474Z,10.40
2022-11-27T09:07:14.823Z,10.77
2022-11-27T09:09:41.544Z,10.82
2022-11-27T09:12:08.146Z,9.90
2022-11-27T09:14:34.885Z,10.15
2022-11-27T09:17:01.548Z,10.60
2022-11-27T09:19:31.261Z,9.02
2022-11-27T09:21:59.689Z,10.02
2022-11-27T09:24:26.417Z,10.27
2022-11-27T09:26:53.092Z,9.85
2022-11-27T09:29:19.759Z,9.55
2022-11-27T09:31:46.472Z,8.48
2022-11-27T09:34:13.317Z,8.98
2022-11-27T09:36:40.089Z,10.25
2022-11-27T09:39:06.925Z,10.13
2022-11-27T09:41:41.975Z,9.07
2022-11-27T09:44:43.132Z,9.68
2022-11-27T09:47:22.310Z,9.13
2022-11-27T09:49:58.183Z,9.25
2022-11-27T09:52:34.099Z,9.15
2022-11-27T09:55:03.989Z,9.20
2022-11-27T09:57:37.022Z,8.95
2022-11-27T10:00:10.577Z,9.35
2022-11-27T10:02:37.467Z,8.68
2022-11-27T10:05:15.498Z,8.98
2022-11-27T10:08:18.154Z,10.23
2022-11-27T10:10:50.640Z,8.75
2022-11-27T10:14:02.839Z,8.25
2022-11-27T10:16:44.521Z,8.45
2022-11-27T10:19:27.202Z,8.13
2022-11-27T10:22:00.877Z,8.43
2022-11-27T10:24:39.950Z,8.90
2022-11-27T10:27:35.585Z,8.02
2022-11-27T10:30:04.799Z,7.38
2022-11-27T10:32:54.709Z,7.90
2022-11-27T10:35:22.796Z,7.68
2022-11-27T10:38:12.976Z,7.47
2022-11-27T10:40:45.621Z,7.15
2022-11-27T10:43:30.565Z,7.70
2022-11-27T10:46:09.388Z,7.82
2022-11-27T10:48:36.078Z,7.45
2022-11-27T10:51:02.694Z,7.22
2022-11-27T10:53:34.445Z,7.00
2022-11-27T10:56:16.680Z,7.85
2022-11-27T10:58:50.565Z,7.65
2022-11-27T11:01:19.832Z,7.47
2022-11-27T11:03:46.700Z,7.50
2022-11-27T11:06:22.287Z,8.38
2022-11-27T11:09:02.166Z,7.15
2022-11-27T11:11:28.903Z,6.55
2022-11-27T11:13:55.907Z,6.80
2022-11-27T11:16:34.740Z,6.97
2022-11-27T11:19:02.715Z,6.60
2022-11-27T11:21:35.209Z,7.82
2022-11-27T11:24:14.011Z,6.70
2022-11-27T11:26:45.485Z,7.07
2022-11-27T11:29:27.375Z,7.20
2022-11-27T11:31:55.234Z,7.28
2022-11-27T11:34:29.461Z,7.00
2022-11-27T11:37:00.418Z,7.20
2022-11-27T11:39:33.349Z,7.05
2022-11-27T11:42:00.069Z,7.05
2022-11-27T11:44:38.950Z,6.10
2022-11-27T11:47:05.990Z,6.80
2022-11-27T11:49:33.752Z,7.20
2022-11-27T11:52:21.977Z,6.63
2022-11-27T11:55:02.438Z,7.20
2022-11-27T11:58:10.493Z,7.38
2022-11-27T12:01:19.325Z,6.85
2022-11-27T12:03:38.523Z,6.65
2022-11-27T12:06:27.589Z,7.00
2022-11-27T12:09:16.259Z,6.55
2022-11-27T12:11:50.695Z,6.95
2022-11-27T12:14:39.487Z,6.07
2022-11-27T12:17:24.435Z,6.35
2022-11-27T12:20:05.934Z,6.30
2022-11-27T12:23:06.772Z,6.88
2022-11-27T12:25:40.115Z,5.88
2022-11-27T12:28:48.760Z,5.90
2022-11-27T12:31:44.241Z,6.10
2022-11-27T12:34:18.227Z,6.05
2022-11-27T12:37:13.722Z,6.30
2022-11-27T12:39:57.213Z,6.00
2022-11-27T12:42:47.992Z,6.07
2022-11-27T12:45:24.380Z,6.50
2022-11-27T12:48:02.850Z,6.40
2022-11-27T12:50:59.372Z,6.15
2022-11-27T12:53:33.426Z,6.05
2022-11-27T12:56:21.682Z,5.72
2022-11-27T12:58:56.302Z,7.07
2022-11-27T13:01:33.803Z,6.85
2022-11-27T13:04:24.913Z,6.90
2022-11-27T13:07:10.814Z,6.75
2022-11-27T13:09:45.412Z,6.45
2022-11-27T13:12:21.663Z,7.05
2022-11-27T13:14:55.694Z,6.22
2022-11-27T13:17:25.757Z,5.97
2022-11-27T13:19:52.720Z,7.30
2022-11-27T13:22:27.625Z,6.55
2022-11-27T13:24:56.039Z,6.35
2022-11-27T13:27:26.124Z,6.07
2022-11-27T13:29:55.247Z,6.25
2022-11-27T13:32:29.184Z,6.63
2022-11-27T13:34:58.372Z,6.18
2022-11-27T13:37:28.864Z,5.70
2022-11-27T13:40:19.433Z,5.97
2022-11-27T13:42:49.783Z,5.70
2022-11-27T13:45:25.829Z,6.47
2022-11-27T13:47:52.818Z,5.75
2022-11-27T13:50:23.880Z,5.75
2022-11-27T13:53:07.536Z,5.63
2022-11-27T13:55:37.151Z,5.57
2022-11-27T13:58:05.299Z,5.25
2022-11-27T14:00:33.238Z,4.70
2022-11-27T14:02:59.920Z,5.35
2022-11-27T14:05:43.760Z,5.40
2022-11-27T14:08:19.207Z,5.07
2022-11-27T14:10:52.639Z,6.20
2022-11-27T14:13:22.420Z,6.00
2022-11-27T14:16:01.985Z,6.22
2022-11-27T14:18:30.074Z,6.90
2022-11-27T14:21:02.762Z,6.90
2022-11-27T14:23:34.638Z,7.15
2022-11-27T14:26:31.441Z,6.70
2022-11-27T14:28:59.917Z,7.00
2022-11-27T14:31:35.897Z,7.47
2022-11-27T14:34:23.406Z,7.40
2022-11-27T14:36:52.419Z,7.50
2022-11-27T14:39:28.187Z,7.72
2022-11-27T14:42:00.015Z,7.80
2022-11-27T14:44:27.230Z,8.07
2022-11-27T14:46:54.878Z,7.45
2022-11-27T14:49:24.944Z,7.38
2022-11-27T14:51:53.682Z,7.95
2022-11-27T14:54:32.654Z,7.55
2022-11-27T14:56:59.277Z,7.82
2022-11-27T14:59:26.292Z,8.13
2022-11-27T15:02:14.100Z,7.80
2022-11-27T15:04:42.395Z,7.88
2022-11-27T15:07:16.350Z,7.22
2022-11-27T15:09:49.165Z,7.35
2022-11-27T15:12:23.421Z,7.40
2022-11-27T15:14:56.545Z,7.22
2022-11-27T15:17:28.635Z,7.57
2022-11-27T15:19:56.397Z,6.90
2022-11-27T15:22:23.228Z,7.00
2022-11-27T15:25:01.013Z,6.60
2022-11-27T15:27:30.784Z,7.70
2022-11-27T15:30:08.733Z,6.82
2022-11-27T15:32:51.945Z,7.30
2022-11-27T15:35:30.035Z,6.43
2022-11-27T15:37:57.671Z,7.00
2022-11-27T15:40:28.147Z,6.85
2022-11-27T15:42:54.764Z,6.40
2022-11-27T15:45:22.236Z,7.10
2022-11-27T15:47:57.462Z,6.97
2022-11-27T15:50:24.148Z,6.78
2022-11-27T15:52:50.996Z,6.40
2022-11-27T15:55:17.752Z,6.65
2022-11-27T15:57:47.648Z,7.00
2022-11-27T16:00:15.206Z,6.55
2022-11-27T16:02:41.962Z,6.38
2022-11-27T16:05:09.745Z,7.38
2022-11-27T16:07:36.537Z,6.90
2022-11-27T16:10:05.410Z,7.50
2022-11-27T16:12:32.258Z,7.10
2022-11-27T16:14:59.021Z,6.95
2022-11-27T16:17:25.722Z,7.60
2022-11-27T16:19:52.498Z,7.85
2022-11-27T16:22:19.361Z,7.53
2022-11-27T16:24:46.004Z,6.85
2022-11-27T16:27:12.747Z,8.15
2022-11-27T16:29:39.744Z,7.30
2022-11-27T16:32:06.783Z,7.65
2022-11-27T16:34:34.937Z,7.15
2022-11-27T16:37:02.722Z,7.97
2022-11-27T16:39:29.678Z,7.57
2022-11-27T16:41:56.973Z,8.20
2022-11-27T16:44:24.024Z,8.63
2022-11-27T16:46:51.304Z,8.50
2022-11-27T16:49:18.534Z,8.20
2022-11-27T16:51:45.436Z,8.18
2022-11-27T16:54:13.192Z,7.50
2022-11-27T16:56:42.157Z,8.35
2022-11-27T16:59:13.839Z,8.18
2022-11-27T17:01:42.380Z,8.20
2022-11-27T17:04:15.693Z,8.10
2022-11-27T17:06:42.514Z,9.07
2022-11-27T17:09:09.250Z,8.25
2022-11-27T17:11:37.435Z,8.77
2022-11-27T17:14:06.528Z,8.93
2022-11-27T17:16:38.887Z,8.43
2022-11-27T17:19:05.795Z,8.98
2022-11-27T17:21:34.494Z,9.20
2022-11-27T17:24:04.635Z,8.70
2022-11-27T17:26:38.690Z,9.80
2022-11-27T17:29:05.396Z,9.23
2022-11-27T17:31:33.776Z,9.40
2022-11-27T17:34:01.399Z,9.88
2022-11-27T17:36:33.785Z,9.40
2022-11-27T17:39:05.181Z,9.55
2022-11-27T17:41:31.984Z,9.30
2022-11-27T17:44:05.607Z,9.45
2022-11-27T17:46:33.047Z,9.50
2022-11-27T17:49:01.260Z,9.40
2022-11-27T17:51:30.540Z,8.60
2022-11-27T17:54:01.891Z,9.30
2022-11-27T17:56:31.412Z,9.00
2022-11-27T17:58:59.894Z,9.35
2022-11-27T18:01:29.213Z,9.45
2022-11-27T18:03:57.631Z,10.07
2022-11-27T18:06:24.424Z,9.07
2022-11-27T18:08:52.378Z,8.65
2022-11-27T18:11:21.561Z,8.70
2022-11-27T18:13:49.098Z,8.90
2022-11-27T18:16:19.225Z,8.30
2022-11-27T18:18:46.417Z,8.45
2022-11-27T18:21:18.962Z,8.52
2022-11-27T18:24:21.304Z,7.95
2022-11-27T18:27:06.758Z,8.63
2022-11-27T18:29:23.754Z,9.18
2022-11-27T18:31:51.232Z,8.48
2022-11-27T18:34:18.075Z,8.55
2022-11-27T18:36:46.092Z,8.30
2022-11-27T18:39:13.192Z,9.38
2022-11-27T18:41:39.976Z,8.40
2022-11-27T18:44:08.339Z,9.00
2022-11-27T18:46:35.311Z,9.27
2022-11-27T18:49:02.308Z,9.15
2022-11-27T18:51:29.249Z,8.00
2022-11-27T18:53:57.532Z,7.93
2022-11-27T18:56:27.877Z,8.88
2022-11-27T18:58:56.693Z,7.88
2022-11-27T19:01:33.092Z,7.63
2022-11-27T19:04:05.922Z,8.30
2022-11-27T19:06:35.183Z,8.75
2022-11-27T19:09:02.231Z,8.05
2022-11-27T19:11:30.962Z,7.72
2022-11-27T19:13:58.401Z,7.93
2022-11-27T19:16:30.323Z,8.40
2022-11-27T19:18:58.619Z,8.98
2022-11-27T19:21:28.244Z,8.48
2022-11-27T19:23:57.819Z,8.85
2022-11-27T19:26:29.901Z,8.27
2022-11-27T19:28:59.261Z,8.07
2022-11-27T19:31:27.113Z,9.43
2022-11-27T19:34:01.181Z,9.10
2022-11-27T19:36:29.963Z,8.85
2022-11-27T19:39:02.422Z,7.65
2022-11-27T19:41:30.439Z,8.98
2022-11-27T19:44:04.847Z,8.57
2022-11-27T19:46:34.297Z,8.57
2022-11-27T19:49:09.044Z,9.25
2022-11-27T19:51:37.922Z,8.65
2022-11-27T19:54:09.989Z,8.43
2022-11-27T19:56:40.211Z,8.45
2022-11-27T19:59:11.683Z,8.95
2022-11-27T20:01:41.512Z,8.27
2022-11-27T20:04:11.020Z,8.82
2022-11-27T20:06:39.199Z,8.93
2022-11-27T20:09:07.136Z,8.38
2022-11-27T20:11:35.551Z,8.63
2022-11-27T20:14:04.799Z,9.07
2022-11-27T20:16:32.779Z,9.30
2022-11-27T20:19:00.307Z,8.43
2022-11-27T20:21:27.994Z,9.15
2022-11-27T20:23:55.364Z,8.65
2022-11-27T20:26:24.669Z,8.63
2022-11-27T20:28:53.001Z,10.02
2022-11-27T20:31:28.826Z,9.13
2022-11-27T20:33:59.062Z,7.70
2022-11-27T20:36:26.108Z,8.45
2022-11-27T20:38:55.597Z,8.88
2022-11-27T20:41:23.817Z,8.85
2022-11-27T20:43:56.234Z,9.13
2022-11-27T20:46:23.149Z,8.63
2022-11-27T20:48:51.497Z,8.45
2022-11-27T20:51:25.912Z,8.30
2022-11-27T20:53:53.722Z,8.23
2022-11-27T20:56:20.533Z,8.57
2022-11-27T20:58:49.071Z,7.50
2022-11-27T21:01:26.257Z,8.75
2022-11-27T21:03:55.505Z,8.18
2022-11-27T21:06:26.989Z,8.10
2022-11-27T21:08:54.583Z,8.00
2022-11-27T21:11:25.293Z,9.25
2022-11-27T21:14:06.672Z,9.07
2022-11-27T21:16:35.594Z,9.98
2022-11-27T21:19:06.376Z,9.32
2022-11-27T21:21:33.523Z,8.85
2022-11-27T21:24:00.339Z,7.90
2022-11-27T21:26:28.080Z,8.88
2022-11-27T21:28:55.028Z,8.48
2022-11-27T21:31:26.840Z,7.95
2022-11-27T21:33:55.795Z,9.18
2022-11-27T21:36:26.536Z,8.80
2022-11-27T21:38:53.651Z,9.32
2022-11-27T21:41:21.498Z,8.52
2022-11-27T21:43:48.933Z,9.10
2022-11-27T21:46:22.626Z,8.98
2022-11-27T21:48:51.128Z,9.63
2022-11-27T21:51:21.185Z,9.30
2022-11-27T21:53:52.191Z,9.73
2022-11-27T21:56:20.372Z,9.75
2022-11-27T21:58:49.081Z,10.13
2022-11-27T22:01:19.913Z,9.45
2022-11-27T22:03:54.750Z,9.93
2022-11-27T22:06:24.693Z,9.18
2022-11-27T22:08:51.700Z,9.85
2022-11-27T22:11:21.152Z,9.30
2022-11-27T22:13:52.132Z,10.00
2022-11-27T22:16:21.517Z,9.50
2022-11-27T22:18:49.322Z,8.80
2022-11-27T22:21:16.891Z,10.50
2022-11-27T22:23:44.015Z,10.63
2022-11-27T22:26:16.087Z,10.90
2022-11-27T22:28:42.974Z,11.55
2022-11-27T22:31:16.693Z,11.15
2022-11-27T22:33:44.543Z,11.70
2022-11-27T22:36:16.885Z,10.35
2022-11-27T22:38:45.444Z,10.88
2022-11-27T22:41:12.695Z,10.60
2022-11-27T22:43:39.815Z,10.98
2022-11-27T22:46:12.782Z,11.00
2022-11-27T22:48:39.826Z,11.50
2022-11-27T22:51:08.231Z,10.95
2022-11-27T22:53:36.106Z,11.15
2022-11-27T22:56:08.136Z,12.10
2022-11-27T22:58:39.795Z,11.27
2022-11-27T23:01:09.263Z,11.27
2022-11-27T23:03:36.068Z,11.20
2022-11-27T23:06:02.713Z,11.38
2022-11-27T23:08:30.301Z,10.88
2022-11-27T23:10:56.934Z,11.65
2022-11-27T23:13:23.624Z,10.85
2022-11-27T23:15:50.239Z,11.65
2022-11-27T23:18:16.897Z,11.98
2022-11-27T23:20:44.028Z,11.25
2022-11-27T23:23:11.537Z,12.13
2022-11-27T23:25:38.754Z,12.27
2022-11-27T23:28:06.021Z,12.40
2022-11-27T23:30:33.649Z,11.80
2022-11-27T23:33:00.291Z,12.55
2022-11-27T23:35:27.942Z,12.23
2022-11-27T23:37:54.603Z,10.90
2022-11-27T23:40:21.306Z,12.32
2022-11-27T23:42:48.051Z,11.73
2022-11-27T23:45:14.662Z,11.30
2022-11-27T23:47:41.458Z,12.60
2022-11-27T23:50:08.613Z,11.05
2022-11-27T23:52:35.386Z,11.02
2022-11-27T23:55:02.119Z,11.38
2022-11-27T23:57:28.937Z,12.40
2022-11-27T23:59:55.558Z,11.43
